createdAt,value
2019-04-29T06:53:37.837Z,22464.76
2019-04-29T06:56:37.885Z,22464.76
2019-04-29T06:59:37.929Z,22464.76
2019-04-29T07:02:38.388Z,22464.76
2019-04-29T07:05:38.063Z,22464.76
2019-04-29T07:08:38.131Z,22464.76
2019-04-29T07:11:38.555Z,22464.76
2019-04-29T07:14:38.804Z,22464.76
2019-04-29T07:17:41.316Z,22464.76
2019-04-29T07:20:38.818Z,22464.76
2019-04-29T07:23:38.421Z,22464.76
2019-04-29T07:26:38.455Z,22464.76
2019-04-29T07:29:38.521Z,22464.76
2019-04-29T07:32:42.268Z,22464.76
2019-04-29T07:35:42.877Z,22464.76
2019-04-29T07:38:41.584Z,22464.76
2019-04-29T07:41:38.753Z,22464.76
2019-04-29T07:44:44.049Z,22464.76
2019-04-29T07:47:38.854Z,22464.76
2019-04-29T07:50:39.028Z,22464.76
2019-04-29T07:53:45.055Z,22464.76
2019-04-29T07:56:42.411Z,22464.76
2019-04-29T07:59:39.719Z,22464.76
2019-04-29T08:02:39.166Z,22464.76
2019-04-29T08:05:39.181Z,22464.76
2019-04-29T08:08:39.272Z,22464.76
2019-04-29T08:11:39.759Z,22464.76
2019-04-29T08:14:39.393Z,22464.76
2019-04-29T08:17:39.454Z,22464.76
2019-04-29T08:20:41.323Z,22464.76
2019-04-29T08:23:42.077Z,22464.76
2019-04-29T08:26:47.069Z,22464.76
2019-04-29T08:29:39.712Z,22464.76
2019-04-29T08:32:39.862Z,22464.76
2019-04-29T08:35:39.937Z,22464.76
2019-04-29T08:38:40.328Z,22464.76
2019-04-29T08:41:40.004Z,22464.76
2019-04-29T08:44:40.009Z,22464.76
2019-04-29T08:47:40.075Z,22464.76
2019-04-29T08:50:40.263Z,22464.76
2019-04-29T08:53:40.492Z,22464.76
2019-04-29T08:56:42.461Z,22464.76
2019-04-29T08:59:40.336Z,22464.76
2019-04-29T09:02:41.398Z,22464.76
2019-04-29T09:05:41.713Z,22464.76
2019-04-29T09:08:54.053Z,22464.76
2019-04-29T09:11:43.557Z,22464.76
2019-04-29T09:14:40.806Z,22464.76
2019-04-29T09:17:40.781Z,22464.76
2019-04-29T09:20:40.945Z,22464.76
2019-04-29T09:23:40.929Z,22464.76
2019-04-29T09:26:40.973Z,22464.76
2019-04-29T09:29:41.047Z,22464.76
2019-04-29T09:32:41.146Z,22464.76
2019-04-29T09:35:41.640Z,22464.76
2019-04-29T09:38:41.271Z,22464.76
2019-04-29T09:41:41.359Z,22464.76
2019-04-29T09:44:44.781Z,22464.76
2019-04-29T09:47:41.496Z,22464.76
2019-04-29T09:50:41.979Z,22464.76
2019-04-29T09:53:41.632Z,22464.76
2019-04-29T09:56:41.822Z,22464.76
2019-04-29T09:59:41.762Z,22464.76
2019-04-29T10:02:41.844Z,22464.76
2019-04-29T10:05:42.042Z,22464.76
2019-04-29T10:08:42.215Z,22464.76
2019-04-29T10:11:42.343Z,22464.76
2019-04-29T10:14:42.138Z,22464.76
2019-04-29T10:17:45.856Z,22464.76
2019-04-29T10:20:42.434Z,22464.76
2019-04-29T10:23:42.377Z,22464.76
2019-04-29T10:26:42.421Z,22464.76
2019-04-29T10:29:42.479Z,22464.76
2019-04-29T10:32:43.622Z,22464.76
2019-04-29T10:35:45.242Z,22464.76
2019-04-29T10:38:44.958Z,22464.76
2019-04-29T10:41:42.885Z,22464.76
2019-04-29T10:44:42.870Z,22464.76
2019-04-29T10:47:42.898Z,22464.76
2019-04-29T10:50:47.085Z,22464.76
2019-04-29T10:53:46.605Z,22464.76
2019-04-29T10:56:43.226Z,22464.76
2019-04-29T10:59:44.944Z,22464.76
2019-04-29T11:02:44.841Z,22464.76
2019-04-29T11:06:00.009Z,22464.76
2019-04-29T11:08:43.397Z,22464.76
2019-04-29T11:11:43.471Z,22464.76
2019-04-29T11:14:43.541Z,22464.76
2019-04-29T11:17:44.905Z,22464.76
2019-04-29T11:20:44.712Z,22464.76
2019-04-29T11:23:43.846Z,22464.76
2019-04-29T11:26:44.836Z,22464.76
2019-04-29T11:29:44.306Z,22464.76
2019-04-29T11:32:43.960Z,22464.76
2019-04-29T11:38:44.120Z,22464.76
2019-04-29T11:41:44.155Z,22464.76
2019-04-29T11:44:44.235Z,22464.76
2019-04-29T11:47:44.403Z,22464.76
2019-04-29T11:50:45.131Z,22464.76
2019-04-29T11:53:44.477Z,22464.76
2019-04-29T11:56:44.498Z,22464.76
2019-04-29T11:59:44.593Z,22464.76
2019-04-29T12:02:46.121Z,22464.76
2019-04-29T12:05:46.108Z,22464.76
2019-04-29T12:08:48.157Z,22464.76
2019-04-29T12:11:44.883Z,22464.76
2019-04-29T12:14:44.930Z,22464.76
2019-04-29T12:17:44.999Z,22464.76
2019-04-29T12:20:45.070Z,22464.76
2019-04-29T12:23:47.767Z,22464.76
2019-04-29T12:26:45.337Z,22464.76
2019-04-29T12:29:48.955Z,22464.76
2019-04-29T12:32:45.337Z,22464.76
2019-04-29T12:35:51.889Z,22464.76
2019-04-29T12:38:49.738Z,22464.76
2019-04-29T12:41:48.912Z,22464.76
2019-04-29T12:44:45.891Z,22464.76
2019-04-29T12:47:45.750Z,22464.76
2019-04-29T12:50:45.808Z,22464.76
2019-04-29T12:53:45.898Z,22464.76
2019-04-29T12:56:48.035Z,22464.76
2019-04-29T12:59:46.024Z,22464.76
2019-04-29T13:02:46.332Z,22464.76
2019-04-29T13:05:57.506Z,22464.76
2019-04-29T13:08:46.223Z,22464.76
2019-04-29T13:11:49.520Z,22464.76
2019-04-29T13:14:46.369Z,22464.76
2019-04-29T13:17:46.432Z,22464.76
2019-04-29T13:20:50.453Z,22464.76
2019-04-29T13:23:55.478Z,22464.76
2019-04-29T13:26:46.629Z,22464.76
2019-04-29T13:29:46.736Z,22464.76
2019-04-29T13:32:47.014Z,22464.76
2019-04-29T13:35:48.462Z,22464.76
2019-04-29T13:38:47.049Z,22464.76
2019-04-29T13:41:56.922Z,22464.76
2019-04-29T13:45:05.061Z,22464.76
2019-04-29T13:47:50.382Z,22464.76
2019-04-29T13:50:47.197Z,22464.76
2019-04-29T13:53:47.249Z,22464.76
2019-04-29T13:56:56.237Z,22464.76
2019-04-29T13:59:49.239Z,22464.76
2019-04-29T14:02:58.437Z,22464.76
2019-04-29T14:05:47.490Z,22464.76
2019-04-29T14:08:47.557Z,22464.76
2019-04-29T14:12:01.097Z,22464.76
2019-04-29T14:14:48.129Z,22464.76
2019-04-29T14:17:47.755Z,22464.76
2019-04-29T14:20:51.835Z,22464.76
2019-04-29T14:23:48.022Z,22464.76
2019-04-29T14:26:48.014Z,22464.76
2019-04-29T14:29:51.311Z,22464.76
2019-04-29T14:32:49.706Z,22464.76
2019-04-29T14:41:50.957Z,22464.76
2019-04-29T14:44:48.780Z,22464.76
2019-04-29T14:50:49.594Z,938.4
2019-04-29T14:56:48.684Z,22464.76
2019-04-29T14:59:48.748Z,22464.76
2019-04-29T15:02:48.702Z,22464.76
2019-04-29T15:05:48.765Z,22464.76
2019-04-29T15:08:48.819Z,22464.76
2019-04-29T15:11:48.939Z,22464.76
2019-04-29T15:14:48.988Z,22464.76
2019-04-29T15:17:48.938Z,22464.76
2019-04-29T15:20:48.991Z,22464.76
2019-04-29T15:23:49.118Z,22464.76
2019-04-29T15:26:49.122Z,22464.76
2019-04-29T15:29:49.197Z,22464.76
2019-04-29T15:32:53.041Z,22464.76
2019-04-29T15:35:49.305Z,22464.76
2019-04-29T15:39:08.293Z,22464.76
2019-04-29T15:41:49.447Z,22464.76
2019-04-29T15:44:51.641Z,22464.76
2019-04-29T15:47:49.615Z,22464.76
2019-04-29T15:50:49.591Z,22464.76
2019-04-29T15:53:49.655Z,22464.76
2019-04-29T15:56:50.110Z,939.82
2019-04-29T15:59:54.387Z,876.74
2019-04-29T16:06:18.933Z,875.24
2019-04-29T16:11:50.089Z,756.07
2019-04-29T16:17:50.106Z,22464.76
2019-04-29T16:20:54.019Z,22464.76
2019-04-29T16:23:50.214Z,22464.76
2019-04-29T16:26:53.695Z,22464.76
2019-04-29T16:29:51.745Z,22464.76
2019-04-29T16:32:50.402Z,22464.76
2019-04-29T16:35:50.456Z,22464.76
2019-04-29T16:38:51.375Z,22464.76
2019-04-29T16:41:51.042Z,22464.76
2019-04-29T16:44:50.619Z,22464.76
2019-04-29T16:56:50.840Z,917.56
2019-04-29T16:59:50.846Z,873.31
2019-04-29T17:02:51.106Z,866.12
2019-04-29T17:05:50.930Z,883.35
2019-04-29T17:09:03.030Z,889.1
2019-04-29T17:11:56.140Z,752.12
2019-04-29T17:20:51.326Z,686.07
2019-04-29T17:53:52.361Z,262.21
2019-04-29T17:57:04.891Z,245.94
2019-04-29T17:59:51.911Z,230.39
2019-04-29T18:02:52.489Z,204.08
2019-04-29T18:05:55.266Z,159.99
2019-04-29T18:08:52.090Z,125.46
2019-04-29T18:11:55.700Z,112.56
2019-04-29T18:14:52.167Z,84.91
2019-04-29T18:17:52.341Z,66.74
2019-04-29T18:20:52.287Z,65.77
2019-04-29T18:23:57.943Z,63.36
2019-04-29T18:26:52.893Z,54.35
2019-04-29T18:29:54.910Z,41.7
2019-04-29T18:32:52.563Z,31.85
2019-04-29T18:36:02.132Z,20.07
2019-04-29T18:38:52.592Z,14.05
2019-04-29T18:41:54.312Z,11.69
2019-04-29T18:44:57.696Z,8.56
2019-04-29T18:47:52.746Z,5.22
2019-04-29T18:50:52.782Z,3.24
2019-04-29T18:53:52.855Z,2
2019-04-29T18:56:52.906Z,1.16
2019-04-29T18:59:54.865Z,0.56
2019-04-29T19:02:58.373Z,0.3
2019-04-29T19:05:55.063Z,0.18
2019-04-29T19:08:54.893Z,0.14
2019-04-29T19:11:53.728Z,0.09
2019-04-29T19:14:57.470Z,0.12
2019-04-29T19:20:54.848Z,0.01
2019-04-29T19:27:00.370Z,0.05
2019-04-29T19:29:55.065Z,0.05
2019-04-29T19:33:00.112Z,0.05
2019-04-29T19:35:55.292Z,0.05
2019-04-29T19:38:55.057Z,0.05
2019-04-29T19:41:55.632Z,0.05
2019-04-29T19:44:55.418Z,0.05
2019-04-29T19:47:55.666Z,0.05
2019-04-29T19:51:13.938Z,0.05
2019-04-29T19:53:55.230Z,0.05
2019-04-29T19:57:02.989Z,0.05
2019-04-29T19:59:56.348Z,0.05
2019-04-29T20:02:54.447Z,0.05
2019-04-29T20:05:57.951Z,0.05
2019-04-29T20:09:00.044Z,0.05
